sensor_id;sensor_type;location;lat;lon;timestamp;P1;durP1;ratioP1;P2;durP2;ratioP2
52458;SDS011;38372;52.902;6.024;2022-11-20T00:01:31;22.17;;;13.75;;
52458;SDS011;38372;52.902;6.024;2022-11-20T00:04:02;25.83;;;14.00;;
52458;SDS011;38372;52.902;6.024;2022-11-20T00:06:52;28.73;;;15.63;;
52458;SDS011;38372;52.902;6.024;2022-11-20T00:09:17;25.58;;;14.57;;
52458;SDS011;38372;52.902;6.024;2022-11-20T00:11:43;22.35;;;13.73;;
52458;SDS011;38372;52.902;6.024;2022-11-20T00:14:09;22.23;;;14.18;;
52458;SDS011;38372;52.902;6.024;2022-11-20T00:16:35;24.23;;;13.93;;
52458;SDS011;38372;52.902;6.024;2022-11-20T00:19:01;21.83;;;12.60;;
52458;SDS011;38372;52.902;6.024;2022-11-20T00:21:27;21.20;;;13.02;;
52458;SDS011;38372;52.902;6.024;2022-11-20T00:23:55;21.00;;;12.35;;
52458;SDS011;38372;52.902;6.024;2022-11-20T00:26:22;23.88;;;13.13;;
52458;SDS011;38372;52.902;6.024;2022-11-20T00:28:55;23.38;;;13.13;;
52458;SDS011;38372;52.902;6.024;2022-11-20T00:31:23;21.80;;;12.98;;
52458;SDS011;38372;52.902;6.024;2022-11-20T00:33:49;20.77;;;13.13;;
52458;SDS011;38372;52.902;6.024;2022-11-20T00:36:18;24.48;;;14.02;;
52458;SDS011;38372;52.902;6.024;2022-11-20T00:38:46;25.77;;;14.18;;
52458;SDS011;38372;52.902;6.024;2022-11-20T00:41:13;25.83;;;13.55;;
52458;SDS011;38372;52.902;6.024;2022-11-20T00:43:40;22.90;;;13.50;;
52458;SDS011;38372;52.902;6.024;2022-11-20T00:46:09;21.50;;;12.60;;
52458;SDS011;38372;52.902;6.024;2022-11-20T00:48:40;22.85;;;13.20;;
52458;SDS011;38372;52.902;6.024;2022-11-20T00:51:06;24.88;;;14.30;;
52458;SDS011;38372;52.902;6.024;2022-11-20T00:53:31;22.52;;;14.02;;
52458;SDS011;38372;52.902;6.024;2022-11-20T00:56:01;21.73;;;12.85;;
52458;SDS011;38372;52.902;6.024;2022-11-20T00:58:32;24.20;;;13.77;;
52458;SDS011;38372;52.902;6.024;2022-11-20T01:03:36;25.13;;;14.10;;
52458;SDS011;38372;52.902;6.024;2022-11-20T01:08:40;23.95;;;13.20;;
52458;SDS011;38372;52.902;6.024;2022-11-20T01:11:09;21.13;;;12.75;;
52458;SDS011;38372;52.902;6.024;2022-11-20T01:13:36;27.73;;;12.95;;
52458;SDS011;38372;52.902;6.024;2022-11-20T01:16:12;20.75;;;12.82;;
52458;SDS011;38372;52.902;6.024;2022-11-20T01:18:40;20.67;;;12.70;;
52458;SDS011;38372;52.902;6.024;2022-11-20T01:21:08;19.13;;;11.38;;
52458;SDS011;38372;52.902;6.024;2022-11-20T01:23:37;22.42;;;13.07;;
52458;SDS011;38372;52.902;6.024;2022-11-20T01:26:07;22.92;;;12.43;;
52458;SDS011;38372;52.902;6.024;2022-11-20T01:28:38;22.73;;;13.02;;
52458;SDS011;38372;52.902;6.024;2022-11-20T01:31:16;21.55;;;12.93;;
52458;SDS011;38372;52.902;6.024;2022-11-20T01:33:47;20.05;;;12.43;;
52458;SDS011;38372;52.902;6.024;2022-11-20T01:36:19;21.65;;;13.32;;
52458;SDS011;38372;52.902;6.024;2022-11-20T01:38:54;20.92;;;12.63;;
52458;SDS011;38372;52.902;6.024;2022-11-20T01:41:25;26.52;;;13.50;;
52458;SDS011;38372;52.902;6.024;2022-11-20T01:44:13;20.65;;;12.65;;
52458;SDS011;38372;52.902;6.024;2022-11-20T01:46:57;19.73;;;12.40;;
52458;SDS011;38372;52.902;6.024;2022-11-20T01:49:43;17.77;;;11.50;;
52458;SDS011;38372;52.902;6.024;2022-11-20T01:52:30;22.02;;;12.63;;
52458;SDS011;38372;52.902;6.024;2022-11-20T01:55:22;22.77;;;12.82;;
52458;SDS011;38372;52.902;6.024;2022-11-20T01:57:55;22.48;;;13.10;;
52458;SDS011;38372;52.902;6.024;2022-11-20T02:00:22;21.60;;;12.10;;
52458;SDS011;38372;52.902;6.024;2022-11-20T02:02:51;21.02;;;11.63;;
52458;SDS011;38372;52.902;6.024;2022-11-20T02:06:16;21.65;;;13.25;;
52458;SDS011;38372;52.902;6.024;2022-11-20T02:08:36;19.33;;;10.75;;
52458;SDS011;38372;52.902;6.024;2022-11-20T02:11:04;20.88;;;12.32;;
52458;SDS011;38372;52.902;6.024;2022-11-20T02:13:40;20.42;;;11.73;;
52458;SDS011;38372;52.902;6.024;2022-11-20T02:16:16;18.95;;;11.95;;
52458;SDS011;38372;52.902;6.024;2022-11-20T02:18:52;20.58;;;12.95;;
52458;SDS011;38372;52.902;6.024;2022-11-20T02:21:28;20.85;;;12.88;;
52458;SDS011;38372;52.902;6.024;2022-11-20T02:26:54;17.10;;;11.55;;
52458;SDS011;38372;52.902;6.024;2022-11-20T02:29:32;20.75;;;11.93;;
52458;SDS011;38372;52.902;6.024;2022-11-20T02:34:57;20.63;;;11.75;;
52458;SDS011;38372;52.902;6.024;2022-11-20T02:37:26;20.90;;;12.30;;
52458;SDS011;38372;52.902;6.024;2022-11-20T02:40:02;16.73;;;10.30;;
52458;SDS011;38372;52.902;6.024;2022-11-20T02:42:38;19.45;;;11.68;;
52458;SDS011;38372;52.902;6.024;2022-11-20T02:45:05;22.25;;;11.95;;
52458;SDS011;38372;52.902;6.024;2022-11-20T02:47:33;22.85;;;12.95;;
52458;SDS011;38372;52.902;6.024;2022-11-20T02:50:05;19.83;;;11.68;;
52458;SDS011;38372;52.902;6.024;2022-11-20T02:52:31;21.13;;;11.48;;
52458;SDS011;38372;52.902;6.024;2022-11-20T02:55:07;20.33;;;11.93;;
52458;SDS011;38372;52.902;6.024;2022-11-20T02:57:33;21.80;;;11.93;;
52458;SDS011;38372;52.902;6.024;2022-11-20T02:59:59;22.15;;;12.85;;
52458;SDS011;38372;52.902;6.024;2022-11-20T03:02:29;20.95;;;12.88;;
52458;SDS011;38372;52.902;6.024;2022-11-20T03:05:02;22.38;;;12.70;;
52458;SDS011;38372;52.902;6.024;2022-11-20T03:07:34;20.42;;;14.07;;
52458;SDS011;38372;52.902;6.024;2022-11-20T03:10:01;20.65;;;12.77;;
52458;SDS011;38372;52.902;6.024;2022-11-20T03:12:29;24.42;;;13.57;;
52458;SDS011;38372;52.902;6.024;2022-11-20T03:14:55;19.98;;;12.50;;
52458;SDS011;38372;52.902;6.024;2022-11-20T03:17:24;20.75;;;12.05;;
52458;SDS011;38372;52.902;6.024;2022-11-20T03:19:50;20.73;;;13.63;;
52458;SDS011;38372;52.902;6.024;2022-11-20T03:22:17;24.10;;;13.65;;
52458;SDS011;38372;52.902;6.024;2022-11-20T03:24:46;25.05;;;13.10;;
52458;SDS011;38372;52.902;6.024;2022-11-20T03:27:14;22.60;;;13.13;;
52458;SDS011;38372;52.902;6.024;2022-11-20T03:29:41;22.40;;;13.15;;
52458;SDS011;38372;52.902;6.024;2022-11-20T03:32:09;25.13;;;13.90;;
52458;SDS011;38372;52.902;6.024;2022-11-20T03:34:36;23.92;;;13.57;;
52458;SDS011;38372;52.902;6.024;2022-11-20T03:37:03;22.50;;;14.15;;
52458;SDS011;38372;52.902;6.024;2022-11-20T03:39:33;24.48;;;13.88;;
52458;SDS011;38372;52.902;6.024;2022-11-20T03:42:01;26.70;;;14.23;;
52458;SDS011;38372;52.902;6.024;2022-11-20T03:44:56;23.77;;;14.25;;
52458;SDS011;38372;52.902;6.024;2022-11-20T03:47:25;22.30;;;13.38;;
52458;SDS011;38372;52.902;6.024;2022-11-20T03:50:09;21.05;;;13.35;;
52458;SDS011;38372;52.902;6.024;2022-11-20T03:52:39;22.65;;;13.57;;
52458;SDS011;38372;52.902;6.024;2022-11-20T03:55:07;21.80;;;12.55;;
52458;SDS011;38372;52.902;6.024;2022-11-20T03:57:36;18.00;;;9.65;;
52458;SDS011;38372;52.902;6.024;2022-11-20T04:00:07;20.42;;;12.43;;
52458;SDS011;38372;52.902;6.024;2022-11-20T04:02:40;20.33;;;12.20;;
52458;SDS011;38372;52.902;6.024;2022-11-20T04:05:06;20.92;;;12.73;;
52458;SDS011;38372;52.902;6.024;2022-11-20T04:07:36;22.50;;;13.18;;
52458;SDS011;38372;52.902;6.024;2022-11-20T04:10:03;23.73;;;13.88;;
52458;SDS011;38372;52.902;6.024;2022-11-20T04:12:47;21.08;;;13.23;;
52458;SDS011;38372;52.902;6.024;2022-11-20T04:15:16;22.92;;;13.45;;
52458;SDS011;38372;52.902;6.024;2022-11-20T04:17:44;20.60;;;14.18;;
52458;SDS011;38372;52.902;6.024;2022-11-20T04:20:11;24.73;;;14.00;;
52458;SDS011;38372;52.902;6.024;2022-11-20T04:22:40;25.80;;;13.95;;
52458;SDS011;38372;52.902;6.024;2022-11-20T04:25:15;21.77;;;12.90;;
52458;SDS011;38372;52.902;6.024;2022-11-20T04:27:41;22.30;;;14.13;;
52458;SDS011;38372;52.902;6.024;2022-11-20T04:30:12;23.70;;;13.60;;
52458;SDS011;38372;52.902;6.024;2022-11-20T04:32:40;24.58;;;14.45;;
52458;SDS011;38372;52.902;6.024;2022-11-20T04:35:09;22.77;;;14.25;;
52458;SDS011;38372;52.902;6.024;2022-11-20T04:37:37;20.35;;;13.30;;
52458;SDS011;38372;52.902;6.024;2022-11-20T04:40:14;22.88;;;13.55;;
52458;SDS011;38372;52.902;6.024;2022-11-20T04:42:40;22.00;;;13.68;;
52458;SDS011;38372;52.902;6.024;2022-11-20T04:45:07;21.40;;;13.32;;
52458;SDS011;38372;52.902;6.024;2022-11-20T04:47:36;23.73;;;15.25;;
52458;SDS011;38372;52.902;6.024;2022-11-20T04:50:14;22.25;;;14.05;;
52458;SDS011;38372;52.902;6.024;2022-11-20T04:52:42;23.00;;;13.90;;
52458;SDS011;38372;52.902;6.024;2022-11-20T04:55:09;21.63;;;13.85;;
52458;SDS011;38372;52.902;6.024;2022-11-20T04:57:39;23.52;;;13.20;;
52458;SDS011;38372;52.902;6.024;2022-11-20T05:00:06;22.40;;;14.38;;
52458;SDS011;38372;52.902;6.024;2022-11-20T05:02:36;18.23;;;11.32;;
52458;SDS011;38372;52.902;6.024;2022-11-20T05:05:05;20.23;;;11.82;;
52458;SDS011;38372;52.902;6.024;2022-11-20T05:07:36;18.50;;;11.10;;
52458;SDS011;38372;52.902;6.024;2022-11-20T05:10:16;16.37;;;10.77;;
52458;SDS011;38372;52.902;6.024;2022-11-20T05:12:44;21.33;;;11.98;;
52458;SDS011;38372;52.902;6.024;2022-11-20T05:15:16;15.63;;;10.27;;
52458;SDS011;38372;52.902;6.024;2022-11-20T05:17:49;19.15;;;11.00;;
52458;SDS011;38372;52.902;6.024;2022-11-20T05:20:17;20.58;;;12.32;;
52458;SDS011;38372;52.902;6.024;2022-11-20T05:22:46;21.58;;;11.65;;
52458;SDS011;38372;52.902;6.024;2022-11-20T05:25:16;19.67;;;11.75;;
52458;SDS011;38372;52.902;6.024;2022-11-20T05:27:44;19.58;;;12.15;;
52458;SDS011;38372;52.902;6.024;2022-11-20T05:30:12;21.30;;;12.55;;
52458;SDS011;38372;52.902;6.024;2022-11-20T05:32:44;20.40;;;11.93;;
52458;SDS011;38372;52.902;6.024;2022-11-20T05:35:22;22.00;;;13.15;;
52458;SDS011;38372;52.902;6.024;2022-11-20T05:37:48;17.85;;;11.70;;
52458;SDS011;38372;52.902;6.024;2022-11-20T05:40:14;18.88;;;11.73;;
52458;SDS011;38372;52.902;6.024;2022-11-20T05:42:39;20.30;;;11.52;;
52458;SDS011;38372;52.902;6.024;2022-11-20T05:45:05;20.70;;;11.75;;
52458;SDS011;38372;52.902;6.024;2022-11-20T05:47:32;20.77;;;11.02;;
52458;SDS011;38372;52.902;6.024;2022-11-20T05:49:59;18.30;;;11.27;;
52458;SDS011;38372;52.902;6.024;2022-11-20T05:52:27;22.85;;;11.88;;
52458;SDS011;38372;52.902;6.024;2022-11-20T05:54:54;22.48;;;12.13;;
52458;SDS011;38372;52.902;6.024;2022-11-20T05:57:20;21.52;;;11.93;;
52458;SDS011;38372;52.902;6.024;2022-11-20T05:59:46;21.58;;;11.88;;
52458;SDS011;38372;52.902;6.024;2022-11-20T06:02:11;18.10;;;11.73;;
52458;SDS011;38372;52.902;6.024;2022-11-20T06:04:37;21.20;;;12.05;;
52458;SDS011;38372;52.902;6.024;2022-11-20T06:07:04;19.13;;;11.07;;
52458;SDS011;38372;52.902;6.024;2022-11-20T06:09:30;18.67;;;11.57;;
52458;SDS011;38372;52.902;6.024;2022-11-20T06:11:56;20.33;;;12.23;;
52458;SDS011;38372;52.902;6.024;2022-11-20T06:14:22;23.48;;;13.30;;
52458;SDS011;38372;52.902;6.024;2022-11-20T06:16:47;32.75;;;18.05;;
52458;SDS011;38372;52.902;6.024;2022-11-20T06:19:13;23.95;;;14.25;;
52458;SDS011;38372;52.902;6.024;2022-11-20T06:21:40;23.58;;;13.88;;
52458;SDS011;38372;52.902;6.024;2022-11-20T06:24:06;22.02;;;13.10;;
52458;SDS011;38372;52.902;6.024;2022-11-20T06:26:33;19.15;;;12.95;;
52458;SDS011;38372;52.902;6.024;2022-11-20T06:28:59;20.92;;;12.82;;
52458;SDS011;38372;52.902;6.024;2022-11-20T06:31:25;18.25;;;12.35;;
52458;SDS011;38372;52.902;6.024;2022-11-20T06:33:51;21.02;;;12.93;;
52458;SDS011;38372;52.902;6.024;2022-11-20T06:36:18;20.83;;;13.13;;
52458;SDS011;38372;52.902;6.024;2022-11-20T06:38:45;16.75;;;11.60;;
52458;SDS011;38372;52.902;6.024;2022-11-20T06:41:21;19.95;;;11.50;;
52458;SDS011;38372;52.902;6.024;2022-11-20T06:43:47;25.35;;;11.35;;
52458;SDS011;38372;52.902;6.024;2022-11-20T06:46:14;17.52;;;11.52;;
52458;SDS011;38372;52.902;6.024;2022-11-20T06:48:44;17.50;;;11.35;;
52458;SDS011;38372;52.902;6.024;2022-11-20T06:51:10;20.20;;;12.63;;
52458;SDS011;38372;52.902;6.024;2022-11-20T06:53:36;20.90;;;12.27;;
52458;SDS011;38372;52.902;6.024;2022-11-20T06:56:02;19.73;;;12.10;;
52458;SDS011;38372;52.902;6.024;2022-11-20T06:58:29;20.40;;;11.82;;
52458;SDS011;38372;52.902;6.024;2022-11-20T07:01:00;18.30;;;12.05;;
52458;SDS011;38372;52.902;6.024;2022-11-20T07:03:33;19.40;;;11.70;;
52458;SDS011;38372;52.902;6.024;2022-11-20T07:06:00;21.00;;;11.63;;
52458;SDS011;38372;52.902;6.024;2022-11-20T07:08:27;17.83;;;11.25;;
52458;SDS011;38372;52.902;6.024;2022-11-20T07:10:56;19.25;;;12.38;;
52458;SDS011;38372;52.902;6.024;2022-11-20T07:13:25;21.70;;;12.52;;
52458;SDS011;38372;52.902;6.024;2022-11-20T07:15:52;20.73;;;11.73;;
52458;SDS011;38372;52.902;6.024;2022-11-20T07:18:17;18.17;;;11.38;;
52458;SDS011;38372;52.902;6.024;2022-11-20T07:20:43;19.45;;;11.70;;
52458;SDS011;38372;52.902;6.024;2022-11-20T07:23:09;17.38;;;11.10;;
52458;SDS011;38372;52.902;6.024;2022-11-20T07:25:34;21.08;;;11.77;;
52458;SDS011;38372;52.902;6.024;2022-11-20T07:28:00;19.30;;;12.00;;
52458;SDS011;38372;52.902;6.024;2022-11-20T07:30:29;22.70;;;12.73;;
52458;SDS011;38372;52.902;6.024;2022-11-20T07:32:56;18.95;;;12.25;;
52458;SDS011;38372;52.902;6.024;2022-11-20T07:35:22;19.98;;;12.30;;
52458;SDS011;38372;52.902;6.024;2022-11-20T07:37:48;23.75;;;12.32;;
52458;SDS011;38372;52.902;6.024;2022-11-20T07:40:14;20.60;;;11.57;;
52458;SDS011;38372;52.902;6.024;2022-11-20T07:42:49;16.63;;;9.85;;
52458;SDS011;38372;52.902;6.024;2022-11-20T07:45:17;21.30;;;12.02;;
52458;SDS011;38372;52.902;6.024;2022-11-20T07:47:44;17.63;;;10.93;;
52458;SDS011;38372;52.902;6.024;2022-11-20T07:50:10;19.13;;;11.18;;
52458;SDS011;38372;52.902;6.024;2022-11-20T07:52:36;16.63;;;10.90;;
52458;SDS011;38372;52.902;6.024;2022-11-20T07:55:02;17.17;;;11.20;;
52458;SDS011;38372;52.902;6.024;2022-11-20T07:57:28;18.45;;;10.73;;
52458;SDS011;38372;52.902;6.024;2022-11-20T07:59:53;20.70;;;10.82;;
52458;SDS011;38372;52.902;6.024;2022-11-20T08:02:19;18.52;;;11.10;;
52458;SDS011;38372;52.902;6.024;2022-11-20T08:04:45;19.15;;;12.40;;
52458;SDS011;38372;52.902;6.024;2022-11-20T08:07:11;20.23;;;11.88;;
52458;SDS011;38372;52.902;6.024;2022-11-20T08:09:36;18.58;;;11.18;;
52458;SDS011;38372;52.902;6.024;2022-11-20T08:12:02;22.20;;;11.57;;
52458;SDS011;38372;52.902;6.024;2022-11-20T08:14:46;18.10;;;9.82;;
52458;SDS011;38372;52.902;6.024;2022-11-20T08:17:12;18.45;;;10.88;;
52458;SDS011;38372;52.902;6.024;2022-11-20T08:19:37;20.48;;;11.10;;
52458;SDS011;38372;52.902;6.024;2022-11-20T08:22:03;16.55;;;10.40;;
52458;SDS011;38372;52.902;6.024;2022-11-20T08:24:29;19.42;;;10.52;;
52458;SDS011;38372;52.902;6.024;2022-11-20T08:26:56;17.88;;;9.82;;
52458;SDS011;38372;52.902;6.024;2022-11-20T08:29:23;17.73;;;10.77;;
52458;SDS011;38372;52.902;6.024;2022-11-20T08:31:49;18.23;;;11.10;;
52458;SDS011;38372;52.902;6.024;2022-11-20T08:34:14;17.83;;;10.65;;
52458;SDS011;38372;52.902;6.024;2022-11-20T08:36:40;17.65;;;10.50;;
52458;SDS011;38372;52.902;6.024;2022-11-20T08:39:06;14.98;;;9.85;;
52458;SDS011;38372;52.902;6.024;2022-11-20T08:41:32;14.25;;;9.63;;
52458;SDS011;38372;52.902;6.024;2022-11-20T08:43:59;17.23;;;10.18;;
52458;SDS011;38372;52.902;6.024;2022-11-20T08:46:31;16.38;;;9.82;;
52458;SDS011;38372;52.902;6.024;2022-11-20T08:49:00;18.42;;;11.48;;
52458;SDS011;38372;52.902;6.024;2022-11-20T08:51:26;13.40;;;9.38;;
52458;SDS011;38372;52.902;6.024;2022-11-20T08:53:53;13.57;;;9.93;;
52458;SDS011;38372;52.902;6.024;2022-11-20T08:56:22;13.45;;;10.55;;
52458;SDS011;38372;52.902;6.024;2022-11-20T08:58:49;14.40;;;10.93;;
52458;SDS011;38372;52.902;6.024;2022-11-20T09:01:16;15.73;;;11.40;;
52458;SDS011;38372;52.902;6.024;2022-11-20T09:03:42;13.88;;;10.57;;
52458;SDS011;38372;52.902;6.024;2022-11-20T09:06:08;15.40;;;10.88;;
52458;SDS011;38372;52.902;6.024;2022-11-20T09:08:34;13.57;;;10.23;;
52458;SDS011;38372;52.902;6.024;2022-11-20T09:11:01;13.77;;;10.45;;
52458;SDS011;38372;52.902;6.024;2022-11-20T09:13:28;13.32;;;10.18;;
52458;SDS011;38372;52.902;6.024;2022-11-20T09:15:57;14.05;;;10.45;;
52458;SDS011;38372;52.902;6.024;2022-11-20T09:18:25;13.75;;;10.60;;
52458;SDS011;38372;52.902;6.024;2022-11-20T09:20:55;14.55;;;10.98;;
52458;SDS011;38372;52.902;6.024;2022-11-20T09:23:26;12.38;;;10.07;;
52458;SDS011;38372;52.902;6.024;2022-11-20T09:25:55;12.97;;;10.83;;
52458;SDS011;38372;52.902;6.024;2022-11-20T09:28:25;13.55;;;10.73;;
52458;SDS011;38372;52.902;6.024;2022-11-20T09:30:51;14.57;;;11.02;;
52458;SDS011;38372;52.902;6.024;2022-11-20T09:33:17;14.45;;;10.13;;
52458;SDS011;38372;52.902;6.024;2022-11-20T09:35:44;11.88;;;9.45;;
52458;SDS011;38372;52.902;6.024;2022-11-20T09:38:16;14.07;;;9.65;;
52458;SDS011;38372;52.902;6.024;2022-11-20T09:40:45;11.88;;;9.13;;
52458;SDS011;38372;52.902;6.024;2022-11-20T09:46:23;12.45;;;9.13;;
52458;SDS011;38372;52.902;6.024;2022-11-20T09:54:49;10.63;;;8.73;;
52458;SDS011;38372;52.902;6.024;2022-11-20T09:57:18;11.60;;;9.35;;
52458;SDS011;38372;52.902;6.024;2022-11-20T09:59:50;10.02;;;8.50;;
52458;SDS011;38372;52.902;6.024;2022-11-20T10:05:24;12.45;;;9.93;;
52458;SDS011;38372;52.902;6.024;2022-11-20T10:10:46;11.02;;;9.70;;
52458;SDS011;38372;52.902;6.024;2022-11-20T10:13:30;11.45;;;9.73;;
52458;SDS011;38372;52.902;6.024;2022-11-20T10:18:43;12.98;;;9.80;;
52458;SDS011;38372;52.902;6.024;2022-11-20T10:24:33;12.32;;;10.27;;
52458;SDS011;38372;52.902;6.024;2022-11-20T10:30:06;13.45;;;10.90;;
52458;SDS011;38372;52.902;6.024;2022-11-20T10:32:37;12.82;;;10.23;;
52458;SDS011;38372;52.902;6.024;2022-11-20T10:35:07;12.45;;;9.60;;
52458;SDS011;38372;52.902;6.024;2022-11-20T10:38:14;11.70;;;10.07;;
52458;SDS011;38372;52.902;6.024;2022-11-20T10:41:24;13.73;;;10.20;;
52458;SDS011;38372;52.902;6.024;2022-11-20T10:44:27;14.20;;;11.02;;
52458;SDS011;38372;52.902;6.024;2022-11-20T10:47:30;12.38;;;10.07;;
52458;SDS011;38372;52.902;6.024;2022-11-20T10:50:09;13.32;;;9.90;;
52458;SDS011;38372;52.902;6.024;2022-11-20T11:00:27;11.73;;;9.05;;
52458;SDS011;38372;52.902;6.024;2022-11-20T11:02:55;13.15;;;8.57;;
52458;SDS011;38372;52.902;6.024;2022-11-20T11:05:38;10.45;;;8.73;;
52458;SDS011;38372;52.902;6.024;2022-11-20T11:08:28;11.88;;;9.43;;
52458;SDS011;38372;52.902;6.024;2022-11-20T11:11:02;14.02;;;9.50;;
52458;SDS011;38372;52.902;6.024;2022-11-20T11:13:49;13.80;;;9.95;;
52458;SDS011;38372;52.902;6.024;2022-11-20T11:18:48;11.75;;;8.85;;
52458;SDS011;38372;52.902;6.024;2022-11-20T11:21:13;13.25;;;9.02;;
52458;SDS011;38372;52.902;6.024;2022-11-20T11:23:48;12.25;;;8.60;;
52458;SDS011;38372;52.902;6.024;2022-11-20T11:26:27;11.73;;;8.57;;
52458;SDS011;38372;52.902;6.024;2022-11-20T11:28:57;13.63;;;9.38;;
52458;SDS011;38372;52.902;6.024;2022-11-20T11:31:31;14.00;;;8.60;;
52458;SDS011;38372;52.902;6.024;2022-11-20T11:34:12;12.90;;;8.60;;
52458;SDS011;38372;52.902;6.024;2022-11-20T11:36:40;12.48;;;8.20;;
52458;SDS011;38372;52.902;6.024;2022-11-20T11:39:10;11.93;;;8.80;;
52458;SDS011;38372;52.902;6.024;2022-11-20T11:41:38;11.50;;;8.90;;
52458;SDS011;38372;52.902;6.024;2022-11-20T11:47:11;12.50;;;8.00;;
52458;SDS011;38372;52.902;6.024;2022-11-20T11:55:07;11.00;;;7.72;;
52458;SDS011;38372;52.902;6.024;2022-11-20T11:57:43;12.70;;;8.27;;
52458;SDS011;38372;52.902;6.024;2022-11-20T12:00:18;12.88;;;8.23;;
52458;SDS011;38372;52.902;6.024;2022-11-20T12:08:15;12.02;;;8.35;;
52458;SDS011;38372;52.902;6.024;2022-11-20T12:16:23;10.68;;;8.05;;
52458;SDS011;38372;52.902;6.024;2022-11-20T12:18:50;14.43;;;9.02;;
52458;SDS011;38372;52.902;6.024;2022-11-20T12:29:11;14.20;;;8.25;;
52458;SDS011;38372;52.902;6.024;2022-11-20T12:31:55;12.82;;;8.30;;
52458;SDS011;38372;52.902;6.024;2022-11-20T12:37:47;12.25;;;8.45;;
52458;SDS011;38372;52.902;6.024;2022-11-20T12:42:55;10.95;;;7.38;;
52458;SDS011;38372;52.902;6.024;2022-11-20T12:46:03;9.25;;;7.13;;
52458;SDS011;38372;52.902;6.024;2022-11-20T12:48:42;11.30;;;7.63;;
52458;SDS011;38372;52.902;6.024;2022-11-20T12:54:26;11.60;;;8.15;;
52458;SDS011;38372;52.902;6.024;2022-11-20T12:57:11;12.05;;;7.85;;
52458;SDS011;38372;52.902;6.024;2022-11-20T13:00:06;11.65;;;7.50;;
52458;SDS011;38372;52.902;6.024;2022-11-20T13:05:51;8.75;;;5.75;;
52458;SDS011;38372;52.902;6.024;2022-11-20T13:08:23;14.18;;;8.27;;
52458;SDS011;38372;52.902;6.024;2022-11-20T13:16:49;13.13;;;9.00;;
52458;SDS011;38372;52.902;6.024;2022-11-20T13:19:37;10.43;;;7.60;;
52458;SDS011;38372;52.902;6.024;2022-11-20T13:22:03;11.77;;;7.68;;
52458;SDS011;38372;52.902;6.024;2022-11-20T13:24:30;11.65;;;8.20;;
52458;SDS011;38372;52.902;6.024;2022-11-20T13:27:46;12.50;;;8.02;;
52458;SDS011;38372;52.902;6.024;2022-11-20T13:30:03;11.55;;;8.23;;
52458;SDS011;38372;52.902;6.024;2022-11-20T13:32:49;11.43;;;8.13;;
52458;SDS011;38372;52.902;6.024;2022-11-20T13:40:27;13.20;;;8.30;;
52458;SDS011;38372;52.902;6.024;2022-11-20T13:45:41;11.63;;;8.23;;
52458;SDS011;38372;52.902;6.024;2022-11-20T13:48:20;13.50;;;8.57;;
52458;SDS011;38372;52.902;6.024;2022-11-20T13:51:00;10.45;;;7.63;;
52458;SDS011;38372;52.902;6.024;2022-11-20T14:01:38;15.50;;;8.57;;
52458;SDS011;38372;52.902;6.024;2022-11-20T14:04:08;15.80;;;9.27;;
52458;SDS011;38372;52.902;6.024;2022-11-20T14:06:41;13.85;;;8.80;;
52458;SDS011;38372;52.902;6.024;2022-11-20T14:09:10;14.87;;;8.57;;
52458;SDS011;38372;52.902;6.024;2022-11-20T14:11:50;13.00;;;9.70;;
52458;SDS011;38372;52.902;6.024;2022-11-20T14:14:17;12.57;;;9.48;;
52458;SDS011;38372;52.902;6.024;2022-11-20T14:16:45;13.93;;;8.77;;
52458;SDS011;38372;52.902;6.024;2022-11-20T14:22:09;16.60;;;9.63;;
52458;SDS011;38372;52.902;6.024;2022-11-20T14:24:44;12.18;;;8.15;;
52458;SDS011;38372;52.902;6.024;2022-11-20T14:27:20;14.10;;;8.98;;
52458;SDS011;38372;52.902;6.024;2022-11-20T14:29:47;14.57;;;10.15;;
52458;SDS011;38372;52.902;6.024;2022-11-20T14:32:18;16.60;;;10.32;;
52458;SDS011;38372;52.902;6.024;2022-11-20T14:34:47;14.15;;;9.13;;
52458;SDS011;38372;52.902;6.024;2022-11-20T14:37:23;15.18;;;10.35;;
52458;SDS011;38372;52.902;6.024;2022-11-20T14:39:54;13.88;;;9.63;;
52458;SDS011;38372;52.902;6.024;2022-11-20T14:42:22;13.25;;;9.60;;
52458;SDS011;38372;52.902;6.024;2022-11-20T14:44:56;13.23;;;9.20;;
52458;SDS011;38372;52.902;6.024;2022-11-20T14:47:27;14.05;;;9.93;;
52458;SDS011;38372;52.902;6.024;2022-11-20T14:49:55;13.48;;;9.43;;
52458;SDS011;38372;52.902;6.024;2022-11-20T14:52:24;16.75;;;10.68;;
52458;SDS011;38372;52.902;6.024;2022-11-20T14:54:58;14.65;;;10.30;;
52458;SDS011;38372;52.902;6.024;2022-11-20T14:57:27;15.77;;;10.13;;
52458;SDS011;38372;52.902;6.024;2022-11-20T15:02:44;18.08;;;10.60;;
52458;SDS011;38372;52.902;6.024;2022-11-20T15:05:13;16.58;;;10.43;;
52458;SDS011;38372;52.902;6.024;2022-11-20T15:07:42;16.77;;;11.32;;
52458;SDS011;38372;52.902;6.024;2022-11-20T15:10:12;18.20;;;11.20;;
52458;SDS011;38372;52.902;6.024;2022-11-20T15:12:46;15.80;;;10.93;;
52458;SDS011;38372;52.902;6.024;2022-11-20T15:15:17;11.38;;;8.18;;
52458;SDS011;38372;52.902;6.024;2022-11-20T15:17:56;15.68;;;10.15;;
52458;SDS011;38372;52.902;6.024;2022-11-20T15:20:25;14.85;;;10.30;;
52458;SDS011;38372;52.902;6.024;2022-11-20T15:22:53;16.25;;;11.38;;
52458;SDS011;38372;52.902;6.024;2022-11-20T15:25:19;16.67;;;11.30;;
52458;SDS011;38372;52.902;6.024;2022-11-20T15:27:44;16.63;;;11.02;;
52458;SDS011;38372;52.902;6.024;2022-11-20T15:30:15;16.80;;;10.80;;
52458;SDS011;38372;52.902;6.024;2022-11-20T15:32:43;17.55;;;10.50;;
52458;SDS011;38372;52.902;6.024;2022-11-20T15:35:10;16.88;;;11.40;;
52458;SDS011;38372;52.902;6.024;2022-11-20T15:37:36;18.52;;;11.65;;
52458;SDS011;38372;52.902;6.024;2022-11-20T15:40:05;17.88;;;11.68;;
52458;SDS011;38372;52.902;6.024;2022-11-20T15:42:43;17.60;;;12.35;;
52458;SDS011;38372;52.902;6.024;2022-11-20T15:45:38;19.52;;;12.90;;
52458;SDS011;38372;52.902;6.024;2022-11-20T15:48:22;16.05;;;10.93;;
52458;SDS011;38372;52.902;6.024;2022-11-20T15:53:55;16.00;;;11.48;;
52458;SDS011;38372;52.902;6.024;2022-11-20T15:56:26;18.13;;;11.13;;
52458;SDS011;38372;52.902;6.024;2022-11-20T15:59:02;18.65;;;11.48;;
52458;SDS011;38372;52.902;6.024;2022-11-20T16:01:36;18.10;;;12.57;;
52458;SDS011;38372;52.902;6.024;2022-11-20T16:04:10;15.07;;;10.95;;
52458;SDS011;38372;52.902;6.024;2022-11-20T16:06:42;16.20;;;11.35;;
52458;SDS011;38372;52.902;6.024;2022-11-20T16:09:12;16.60;;;11.48;;
52458;SDS011;38372;52.902;6.024;2022-11-20T16:11:45;19.73;;;11.45;;
52458;SDS011;38372;52.902;6.024;2022-11-20T16:14:16;17.95;;;11.52;;
52458;SDS011;38372;52.902;6.024;2022-11-20T16:17:05;16.98;;;11.40;;
52458;SDS011;38372;52.902;6.024;2022-11-20T16:19:40;14.93;;;11.05;;
52458;SDS011;38372;52.902;6.024;2022-11-20T16:22:15;18.17;;;11.60;;
52458;SDS011;38372;52.902;6.024;2022-11-20T16:24:55;17.75;;;11.20;;
52458;SDS011;38372;52.902;6.024;2022-11-20T16:27:23;21.88;;;13.38;;
52458;SDS011;38372;52.902;6.024;2022-11-20T16:29:55;22.52;;;13.10;;
52458;SDS011;38372;52.902;6.024;2022-11-20T16:32:20;21.20;;;13.13;;
52458;SDS011;38372;52.902;6.024;2022-11-20T16:34:46;18.02;;;11.50;;
52458;SDS011;38372;52.902;6.024;2022-11-20T16:37:12;20.95;;;13.50;;
52458;SDS011;38372;52.902;6.024;2022-11-20T16:39:37;16.98;;;12.13;;
52458;SDS011;38372;52.902;6.024;2022-11-20T16:42:03;19.80;;;11.95;;